Time;durP1;ratioP1;P1;durP2;ratioP2;P2;SDS_P1;SDS_P2;PMS_P1;PMS_P2;Temp;Humidity;BMP_temperature;BMP_pressure;BME280_temperature;BME280_humidity;BME280_pressure;Samples;Min_cycle;Max_cycle;Signal;HPM_P1;HPM_P2
2020/12/03 00:01:14;;;;;;;53.83;20.37;;;;;;;-1.22;94.93;100409.66;1759635;81;20928;-77
2020/12/03 00:03:48;;;;;;;45.43;19.32;;;;;;;-1.24;95.03;100411.73;1758983;81;21383;-77
2020/12/03 00:06:24;;;;;;;47.62;21.12;;;;;;;-1.25;94.98;100410.91;1759701;81;20948;-81
2020/12/03 00:09:08;;;;;;;45.23;17.87;;;;;;;-1.25;94.99;100405.52;1727828;82;20930;-81
2020/12/03 00:11:41;;;;;;;43.23;18.75;;;;;;;-1.25;94.95;100414.95;1759311;80;20952;-81
2020/12/03 00:14:08;;;;;;;45.40;20.43;;;;;;;-1.25;95.02;100418.99;1759549;81;21003;-81
2020/12/03 00:16:36;;;;;;;41.83;18.45;;;;;;;-1.26;94.96;100424.60;1759381;80;21168;-81
2020/12/03 00:19:06;;;;;;;44.93;17.70;;;;;;;-1.27;94.93;100419.73;1759580;81;20951;-81
2020/12/03 00:21:43;;;;;;;43.23;18.75;;;;;;;-1.27;94.94;100423.77;1751703;81;21466;-81
2020/12/03 00:24:15;;;;;;;46.37;20.08;;;;;;;-1.24;94.94;100425.21;1754700;81;20999;-81
2020/12/03 00:26:43;;;;;;;42.27;19.98;;;;;;;-1.22;94.88;100434.73;1758194;81;21486;-80
2020/12/03 00:29:10;;;;;;;43.58;19.40;;;;;;;-1.21;94.87;100420.21;1757412;81;21632;-82
2020/12/03 00:31:38;;;;;;;43.48;19.70;;;;;;;-1.16;94.95;100416.86;1757364;80;20992;-80
2020/12/03 00:34:07;;;;;;;46.92;22.50;;;;;;;-1.07;94.98;100418.22;1757478;81;21474;-80
2020/12/03 00:36:37;;;;;;;50.85;19.55;;;;;;;-1.01;94.87;100414.13;1757381;81;20940;-80
2020/12/03 00:39:07;;;;;;;42.00;18.42;;;;;;;-0.96;94.73;100418.05;1757448;81;20944;-81
2020/12/03 00:41:34;;;;;;;48.60;20.48;;;;;;;-0.98;94.50;100414.22;1733830;81;22342;-82
2020/12/03 00:44:03;;;;;;;47.90;21.12;;;;;;;-1.01;94.32;100410.09;1702946;84;21175;-82
2020/12/03 00:46:33;;;;;;;46.20;19.80;;;;;;;-1.01;94.15;100416.83;1707221;82;21020;-83
2020/12/03 00:49:01;;;;;;;35.43;17.07;;;;;;;-1.02;94.05;100419.73;1724355;81;21059;-82
2020/12/03 00:51:29;;;;;;;35.63;15.53;;;;;;;-1.01;94.04;100416.00;1738538;81;21583;-83
2020/12/03 00:53:57;;;;;;;38.33;15.68;;;;;;;-1.03;93.89;100415.39;1793322;80;21380;-81
2020/12/03 00:56:26;;;;;;;38.10;16.70;;;;;;;-1.09;93.47;100414.40;1757913;81;20963;-80
2020/12/03 00:58:54;;;;;;;38.08;17.90;;;;;;;-1.14;93.46;100410.70;1734336;82;20942;-80
2020/12/03 01:01:22;;;;;;;35.83;16.42;;;;;;;-1.14;93.54;100408.02;1734283;82;21089;-79
2020/12/03 01:03:50;;;;;;;36.83;17.85;;;;;;;-1.19;93.43;100404.66;1734417;82;21591;-78
2020/12/03 01:06:18;;;;;;;37.73;16.25;;;;;;;-1.22;93.49;100406.96;1749094;82;21284;-77
2020/12/03 01:08:47;;;;;;;39.55;17.80;;;;;;;-1.25;93.57;100408.22;1749333;82;21027;-77
2020/12/03 01:11:20;;;;;;;38.38;16.77;;;;;;;-1.26;93.76;100403.88;1750331;81;21482;-78
2020/12/03 01:13:48;;;;;;;38.33;16.73;;;;;;;-1.26;93.78;100405.22;1723040;82;21062;-79
2020/12/03 01:16:20;;;;;;;35.90;18.25;;;;;;;-1.28;93.69;100405.13;1749945;81;21065;-84
2020/12/03 01:18:59;;;;;;;32.95;16.25;;;;;;;-1.29;93.85;100402.96;1668841;86;21420;-78
2020/12/03 01:21:26;;;;;;;34.78;16.45;;;;;;;-1.26;94.07;100394.97;1670726;86;21107;-82
2020/12/03 01:23:54;;;;;;;38.80;17.25;;;;;;;-1.25;94.01;100392.58;1670199;86;21021;-83
2020/12/03 01:26:23;;;;;;;39.73;18.37;;;;;;;-1.28;93.95;100387.10;1670733;86;21174;-84
2020/12/03 01:28:50;;;;;;;42.50;17.52;;;;;;;-1.29;93.99;100394.05;1669908;84;21520;-78
2020/12/03 01:31:18;;;;;;;40.85;18.62;;;;;;;-1.28;94.13;100390.31;1669278;86;21068;-83
2020/12/03 01:33:46;;;;;;;39.55;17.98;;;;;;;-1.27;94.01;100398.70;1669258;85;21590;-87
2020/12/03 01:36:14;;;;;;;41.40;18.62;;;;;;;-1.29;93.99;100408.34;1669286;86;21053;-84
2020/12/03 01:38:42;;;;;;;39.13;18.32;;;;;;;-1.29;94.07;100400.79;1669305;86;21332;-83
2020/12/03 01:41:10;;;;;;;37.63;17.67;;;;;;;-1.31;94.13;100396.97;1669303;86;21538;-84
2020/12/03 01:43:42;;;;;;;41.48;19.00;;;;;;;-1.30;94.10;100396.44;1669459;85;21639;-86
2020/12/03 01:46:10;;;;;;;;;;;;;;;-1.33;94.01;100388.27;1671746;84;21041;-82
2020/12/03 01:48:55;;;;;;;45.95;19.10;;;;;;;-1.35;94.08;100391.70;1669498;86;20160;-83
2020/12/03 01:51:32;;;;;;;43.70;19.77;;;;;;;-1.37;94.17;100394.62;1669432;86;20980;-82
2020/12/03 01:54:12;;;;;;;44.70;20.72;;;;;;;-1.31;94.30;100385.36;1888878;75;22137;-83
2020/12/03 01:56:54;;;;;;;43.02;19.25;;;;;;;-1.34;94.46;100399.57;1775494;80;21571;-82
2020/12/03 01:59:24;;;;;;;44.45;20.60;;;;;;;-1.29;94.51;100392.19;1774328;81;21532;-82
2020/12/03 02:01:55;;;;;;;42.70;19.00;;;;;;;-1.26;94.39;100393.63;1775500;80;20954;-82
2020/12/03 02:04:23;;;;;;;51.50;21.90;;;;;;;-1.21;94.52;100396.48;1774055;81;21003;-80
2020/12/03 02:07:01;;;;;;;43.20;19.32;;;;;;;-1.20;94.35;100401.66;1775395;80;21571;-82
2020/12/03 02:09:30;;;;;;;49.25;21.45;;;;;;;-1.23;94.17;100400.75;1773321;81;21002;-82
2020/12/03 02:12:00;;;;;;;49.33;21.55;;;;;;;-1.27;94.07;100403.57;1775324;80;21018;-82
2020/12/03 02:14:27;;;;;;;50.05;23.35;;;;;;;-1.26;94.16;100403.05;1774045;81;20958;-82
2020/12/03 02:16:56;;;;;;;57.03;23.75;;;;;;;-1.26;94.07;100399.83;1775398;80;20939;-82
2020/12/03 02:19:29;;;;;;;47.85;21.75;;;;;;;-1.26;94.09;100390.92;1773957;81;21069;-80
2020/12/03 02:22:07;;;;;;;51.15;21.68;;;;;;;-1.28;94.14;100393.84;1775591;80;20931;-80
2020/12/03 02:24:40;;;;;;;51.63;23.57;;;;;;;-1.28;94.13;100399.22;1774055;81;21366;-80
2020/12/03 02:27:09;;;;;;;45.90;20.10;;;;;;;-1.27;94.08;100394.14;1775395;80;20958;-81
2020/12/03 02:29:37;;;;;;;51.68;22.42;;;;;;;-1.25;94.05;100392.58;1746170;81;20955;-81
2020/12/03 02:32:06;;;;;;;47.15;20.60;;;;;;;-1.26;94.02;100386.88;1775359;80;21135;-83
2020/12/03 02:34:33;;;;;;;52.80;22.80;;;;;;;-1.25;94.18;100391.23;1743344;82;20994;-83
2020/12/03 02:37:02;;;;;;;52.88;22.65;;;;;;;-1.28;94.04;100387.10;1775550;80;21386;-78
2020/12/03 02:39:30;;;;;;;49.18;21.17;;;;;;;-1.31;93.94;100380.80;1743344;82;21628;-78
2020/12/03 02:42:02;;;;;;;52.85;23.65;;;;;;;-1.33;94.00;100380.20;1775422;80;21010;-77
2020/12/03 02:44:30;;;;;;;59.42;24.15;;;;;;;-1.34;93.99;100381.23;1735975;82;21016;-78
2020/12/03 02:46:57;;;;;;;55.08;24.02;;;;;;;-1.35;94.01;100383.11;1793947;79;21459;-78
2020/12/03 02:49:25;;;;;;;59.05;25.48;;;;;;;-1.36;94.16;100377.94;1700412;83;21201;-79
2020/12/03 02:51:55;;;;;;;60.30;24.67;;;;;;;-1.36;94.26;100380.11;1699958;84;20977;-83
2020/12/03 02:54:23;;;;;;;56.85;23.80;;;;;;;-1.33;94.46;100381.54;1757278;80;21520;-85
2020/12/03 02:56:52;;;;;;;60.20;25.68;;;;;;;-1.31;94.34;100381.33;1718593;83;20990;-84
2020/12/03 02:59:19;;;;;;;56.33;23.57;;;;;;;-1.32;94.31;100379.67;1700267;84;20955;-78
2020/12/03 03:01:47;;;;;;;61.58;23.70;;;;;;;-1.32;94.31;100381.84;1718558;83;22570;-85
2020/12/03 03:04:15;;;;;;;54.33;23.25;;;;;;;-1.32;94.35;100384.54;1718244;83;20963;-85
2020/12/03 03:06:44;;;;;;;61.25;25.27;;;;;;;-1.36;94.20;100384.15;1718228;83;21069;-90
2020/12/03 03:09:11;;;;;;;54.38;23.00;;;;;;;-1.37;94.22;100384.36;1718074;83;21003;-87
2020/12/03 03:11:39;;;;;;;55.15;21.93;;;;;;;-1.38;94.22;100382.19;1718242;83;21058;-88
2020/12/03 03:14:07;;;;;;;57.85;22.82;;;;;;;-1.39;94.28;100389.97;1718082;83;23542;-79
2020/12/03 03:16:34;;;;;;;50.17;21.85;;;;;;;-1.39;94.33;100380.54;1717946;83;20963;-79
2020/12/03 03:19:03;;;;;;;56.70;22.50;;;;;;;-1.36;94.42;100383.33;1718170;83;21596;-79
2020/12/03 03:21:31;;;;;;;54.60;22.93;;;;;;;-1.37;94.32;100378.98;1718093;83;21547;-79
2020/12/03 03:23:59;;;;;;;52.50;21.65;;;;;;;-1.39;94.33;100377.84;1727525;82;21082;-79
2020/12/03 03:26:27;;;;;;;56.45;23.12;;;;;;;-1.34;94.57;100380.72;1735786;82;21448;-79
2020/12/03 03:28:55;;;;;;;48.38;20.97;;;;;;;-1.31;94.45;100379.98;1719475;83;20983;-79
2020/12/03 03:31:22;;;;;;;50.83;21.77;;;;;;;-1.30;94.39;100366.81;1737897;82;21130;-89
2020/12/03 03:33:50;;;;;;;50.33;21.23;;;;;;;-1.32;94.30;100372.42;1749421;82;21623;-88
2020/12/03 03:36:18;;;;;;;60.15;23.18;;;;;;;-1.34;94.22;100372.64;1749382;82;21072;-81
2020/12/03 03:38:45;;;;;;;55.38;21.55;;;;;;;-1.35;94.17;100370.98;1749441;82;21580;-86
2020/12/03 03:41:13;;;;;;;55.25;21.70;;;;;;;-1.35;94.16;100376.37;1741657;81;21059;-77
2020/12/03 03:43:41;;;;;;;52.75;21.97;;;;;;;-1.36;94.21;100378.76;1729238;82;21004;-78
2020/12/03 03:46:08;;;;;;;52.85;22.45;;;;;;;-1.39;94.20;100379.20;1722661;82;20962;-84
2020/12/03 03:48:36;;;;;;;49.67;20.50;;;;;;;-1.36;94.31;100381.98;1743219;82;21063;-85
2020/12/03 03:51:05;;;;;;;49.67;20.65;;;;;;;-1.35;94.31;100385.80;1719519;83;21837;-87
2020/12/03 03:53:33;;;;;;;51.95;22.20;;;;;;;-1.37;94.16;100387.88;1723906;83;21484;-87
2020/12/03 03:56:03;;;;;;;54.63;22.17;;;;;;;-1.37;94.13;100388.41;1744085;81;21536;-84
2020/12/03 03:58:31;;;;;;;51.77;21.80;;;;;;;-1.37;94.18;100393.80;1783809;80;21018;-88
2020/12/03 04:00:59;;;;;;;46.48;20.50;;;;;;;-1.39;94.23;100394.01;1783823;80;21026;-82
2020/12/03 04:03:26;;;;;;;51.13;21.05;;;;;;;-1.38;94.29;100391.62;1783787;80;21358;-80
2020/12/03 04:05:55;;;;;;;47.08;20.85;;;;;;;-1.34;94.40;100395.53;1783797;80;21490;-81
2020/12/03 04:08:24;;;;;;;50.73;21.42;;;;;;;-1.31;94.32;100399.66;1783761;80;21099;-79
2020/12/03 04:10:52;;;;;;;56.25;22.32;;;;;;;-1.31;94.20;100388.88;1783761;80;21583;-76
2020/12/03 04:13:22;;;;;;;52.03;20.82;;;;;;;-1.31;94.16;100388.06;1783789;80;21010;-79
2020/12/03 04:15:50;;;;;;;53.00;20.95;;;;;;;-1.34;94.24;100383.41;1788122;79;21353;-81
2020/12/03 04:18:25;;;;;;;51.25;20.85;;;;;;;-1.35;94.11;100385.80;1812727;79;21151;-79
2020/12/03 04:20:48;;;;;;;51.53;22.60;;;;;;;-1.37;94.05;100381.15;1806277;79;20883;-78
2020/12/03 04:23:16;;;;;;;58.15;23.25;;;;;;;-1.38;94.12;100389.45;1814327;78;20896;-79
2020/12/03 04:25:44;;;;;;;46.65;21.00;;;;;;;-1.37;94.22;100383.02;1812016;79;20903;-77
2020/12/03 04:28:11;;;;;;;49.80;21.40;;;;;;;-1.32;94.40;100383.72;1796622;79;21372;-76
2020/12/03 04:30:40;;;;;;;54.53;21.33;;;;;;;-1.31;94.28;100382.15;1793944;79;21556;-78
2020/12/03 04:33:07;;;;;;;50.00;20.40;;;;;;;-1.31;94.18;100390.75;1764840;81;21065;-75
2020/12/03 04:35:37;;;;;;;53.73;20.23;;;;;;;-1.32;94.15;100382.37;1764942;81;20927;-75
2020/12/03 04:38:06;;;;;;;45.98;19.65;;;;;;;-1.35;94.09;100377.72;1764841;81;21064;-77
2020/12/03 04:40:38;;;;;;;60.58;24.35;;;;;;;-1.33;94.09;100378.84;1764888;81;22284;-77
2020/12/03 04:43:34;;;;;;;51.28;20.05;;;;;;;-1.35;93.97;100376.37;1763938;81;21160;-77
2020/12/03 04:46:25;;;;;;;51.42;20.10;;;;;;;-1.35;94.00;100380.94;1764937;81;21536;-76
2020/12/03 04:49:28;;;;;;;51.85;20.40;;;;;;;-1.38;94.00;100385.41;1764926;80;21022;-77
2020/12/03 04:52:23;;;;;;;49.33;20.15;;;;;;;-1.37;94.06;100379.80;1764971;81;20926;-78
2020/12/03 04:55:15;;;;;;;50.30;20.62;;;;;;;-1.36;93.97;100384.15;1764962;81;22246;-77
2020/12/03 04:58:13;;;;;;;55.08;21.90;;;;;;;-1.38;93.92;100397.53;1764837;81;21921;-77
2020/12/03 05:00:51;;;;;;;54.70;22.17;;;;;;;-1.40;93.98;100392.87;1764773;81;20998;-83
2020/12/03 05:04:04;;;;;;;50.67;20.65;;;;;;;-1.41;94.03;100392.58;1765026;81;21480;-88
2020/12/03 05:06:57;;;;;;;56.45;21.50;;;;;;;-1.41;94.05;100386.66;1765887;81;20942;-83
2020/12/03 05:09:40;;;;;;;;;;;;;;;-1.41;94.19;100389.88;1768636;80;23612;-84
2020/12/03 05:12:23;;;;;;;48.90;19.42;;;;;;;-1.41;94.24;100375.89;1765010;81;20131;-76
2020/12/03 05:14:56;;;;;;;48.68;21.17;;;;;;;-1.39;94.28;100382.41;1764854;80;21010;-84
2020/12/03 05:17:36;;;;;;;52.83;21.07;;;;;;;-1.40;94.30;100377.55;1746616;81;20930;-83
2020/12/03 05:20:24;;;;;;;61.05;20.55;;;;;;;-1.39;94.33;100381.06;1765017;81;20978;-75
2020/12/03 05:23:19;;;;;;;52.00;20.77;;;;;;;-1.40;94.24;100377.55;1762743;81;21443;-83
2020/12/03 05:25:49;;;;;;;62.45;21.52;;;;;;;-1.40;94.21;100385.63;1764932;81;21084;-79
2020/12/03 05:28:38;;;;;;;48.00;19.57;;;;;;;-1.37;94.29;100380.33;1764926;80;21460;-78
2020/12/03 05:31:13;;;;;;;51.45;20.00;;;;;;;-1.37;94.29;100379.80;1764863;81;20946;-80
2020/12/03 05:33:41;;;;;;;55.73;21.27;;;;;;;-1.36;94.28;100380.63;1764945;81;20954;-80
2020/12/03 05:36:26;;;;;;;51.68;20.75;;;;;;;-1.38;94.30;100382.19;1765021;80;22024;-81
2020/12/03 05:38:54;;;;;;;58.42;20.82;;;;;;;-1.36;94.40;100389.53;1754871;81;20984;-80
2020/12/03 05:41:24;;;;;;;52.53;20.35;;;;;;;-1.36;94.39;100393.58;1764460;81;20943;-77
2020/12/03 05:43:52;;;;;;;63.73;21.85;;;;;;;-1.35;94.24;100395.75;1764914;81;21476;-83
2020/12/03 05:46:22;;;;;;;59.58;21.27;;;;;;;-1.34;94.26;100399.57;1764937;81;21002;-77
2020/12/03 05:49:03;;;;;;;48.78;20.55;;;;;;;-1.32;94.27;100390.45;1764854;81;21380;-83
2020/12/03 05:51:32;;;;;;;52.58;20.25;;;;;;;-1.34;94.28;100398.75;1764939;81;20986;-78
2020/12/03 05:54:07;;;;;;;61.05;21.62;;;;;;;-1.37;94.28;100395.97;1764707;81;21532;-79
2020/12/03 05:56:34;;;;;;;57.48;21.77;;;;;;;-1.36;94.38;100401.66;1772514;79;21461;-87
2020/12/03 05:59:14;;;;;;;52.60;19.87;;;;;;;-1.34;94.29;100402.78;1799584;78;21538;-84
2020/12/03 06:01:56;;;;;;;59.45;21.75;;;;;;;-1.34;94.25;100403.61;1776636;80;22326;-84
2020/12/03 06:04:45;;;;;;;54.98;21.55;;;;;;;-1.33;94.21;100401.74;1786223;79;20930;-83
2020/12/03 06:07:33;;;;;;;51.18;19.15;;;;;;;-1.32;94.25;100406.61;1796160;79;21008;-81
2020/12/03 06:10:17;;;;;;;51.85;19.98;;;;;;;-1.32;94.23;100403.91;1796362;79;20989;-76
2020/12/03 06:13:14;;;;;;;52.95;20.68;;;;;;;-1.32;94.23;100410.65;1796343;79;20923;-76
2020/12/03 06:15:51;;;;;;;53.80;18.77;;;;;;;-1.29;94.26;100414.26;1796411;79;21255;-86
2020/12/03 06:18:49;;;;;;;54.65;20.92;;;;;;;-1.26;94.33;100407.09;1796317;79;21014;-84
2020/12/03 06:21:54;;;;;;;55.05;21.33;;;;;;;-1.23;94.32;100408.00;1796332;79;21053;-82
2020/12/03 06:24:28;;;;;;;62.30;22.40;;;;;;;-1.22;94.27;100404.27;1796371;80;21006;-74
2020/12/03 06:27:22;;;;;;;60.15;20.92;;;;;;;-1.23;94.23;100402.61;1796042;79;20946;-79
2020/12/03 06:30:21;;;;;;;54.20;19.67;;;;;;;-1.22;94.16;100409.13;1796295;79;21381;-75
2020/12/03 06:33:10;;;;;;;50.60;18.37;;;;;;;-1.23;94.06;100406.13;1796251;80;21144;-76
2020/12/03 06:35:52;;;;;;;53.50;19.17;;;;;;;-1.25;93.99;100407.39;1795496;79;20883;-82
2020/12/03 06:38:46;;;;;;;57.20;21.65;;;;;;;-1.26;94.04;100403.88;1796532;79;21151;-79
2020/12/03 06:41:43;;;;;;;59.08;22.65;;;;;;;-1.22;94.18;100408.30;1795234;79;21073;-83
2020/12/03 06:44:32;;;;;;;56.42;21.60;;;;;;;-1.20;94.18;100416.47;1796552;79;22765;-84
2020/12/03 06:47:23;;;;;;;58.83;20.10;;;;;;;-1.17;94.18;100409.83;1796681;79;21615;-84
2020/12/03 06:50:31;;;;;;;60.58;21.60;;;;;;;-1.19;94.14;100408.70;1796529;79;21132;-85
2020/12/03 06:53:29;;;;;;;60.90;22.98;;;;;;;-1.17;94.04;100413.87;1796360;79;22033;-84
2020/12/03 06:56:43;;;;;;;56.40;20.43;;;;;;;-1.13;94.20;100415.88;1796683;79;21061;-84
2020/12/03 06:59:41;;;;;;;57.25;20.75;;;;;;;-1.10;94.18;100415.96;1796474;79;22354;-84
2020/12/03 07:02:14;;;;;;;55.98;20.60;;;;;;;-1.08;94.13;100413.87;1796447;79;20891;-84
2020/12/03 07:05:38;;;;;;;67.78;22.73;;;;;;;-1.08;93.97;100414.70;1781068;79;21079;-84
2020/12/03 07:08:20;;;;;;;69.15;22.13;;;;;;;-1.11;93.80;100417.01;1796421;79;20911;-84
2020/12/03 07:11:31;;;;;;;68.97;21.12;;;;;;;-1.12;94.06;100422.92;1796665;79;25494;-80
2020/12/03 07:14:11;;;;;;;61.23;21.85;;;;;;;-1.09;94.07;100418.96;1776477;79;21360;-86
2020/12/03 07:17:25;;;;;;;65.52;22.67;;;;;;;-1.10;93.94;100424.88;1794930;79;21120;-84
2020/12/03 07:20:18;;;;;;;58.92;20.48;;;;;;;-1.10;93.83;100427.57;1796729;79;20922;-84
2020/12/03 07:23:11;;;;;;;62.55;22.98;;;;;;;-1.12;93.76;100431.52;1796518;79;20915;-83
2020/12/03 07:25:42;;;;;;;58.98;22.27;;;;;;;-1.11;93.92;100421.88;1776890;79;20994;-85
2020/12/03 07:28:25;;;;;;;59.55;21.37;;;;;;;-1.08;93.96;100425.48;1796414;79;22803;-83
2020/12/03 07:30:56;;;;;;;62.53;20.65;;;;;;;-1.04;93.98;100421.31;1796366;79;20990;-83
2020/12/03 07:34:22;;;;;;;61.77;20.77;;;;;;;-1.02;93.65;100423.78;1796463;79;21009;-86
2020/12/03 07:36:56;;;;;;;57.62;19.50;;;;;;;-1.05;93.47;100421.00;1796555;79;21916;-86
2020/12/03 07:39:28;;;;;;;58.48;20.60;;;;;;;-1.06;93.46;100422.57;1796474;79;21089;-85
2020/12/03 07:42:13;;;;;;;59.70;21.35;;;;;;;-1.06;93.49;100416.66;1796396;79;26652;-84
2020/12/03 07:44:53;;;;;;;54.23;20.15;;;;;;;-1.04;93.54;100409.70;1796425;79;21014;-82
2020/12/03 07:47:34;;;;;;;64.72;22.10;;;;;;;-1.04;93.42;100413.75;1777680;79;20969;-80
2020/12/03 07:50:24;;;;;;;65.57;21.57;;;;;;;-1.08;93.26;100417.40;1796587;79;21276;-79
2020/12/03 07:53:17;;;;;;;60.10;21.23;;;;;;;-1.10;93.37;100414.09;1769177;79;21611;-80
2020/12/03 07:55:46;;;;;;;61.75;20.70;;;;;;;-1.11;93.43;100410.27;1796263;79;21069;-83
2020/12/03 07:58:42;;;;;;;49.18;18.75;;;;;;;-1.09;93.62;100413.05;1796501;79;21065;-83
2020/12/03 08:01:36;;;;;;;52.67;18.82;;;;;;;-1.08;93.47;100412.53;1796477;79;20962;-86
2020/12/03 08:04:12;;;;;;;64.37;22.82;;;;;;;-1.08;93.27;100412.53;1796629;79;21003;-88
2020/12/03 08:06:42;;;;;;;53.75;19.02;;;;;;;-1.11;93.12;100408.92;1796539;79;21036;-88
2020/12/03 08:09:19;;;;;;;56.55;21.62;;;;;;;-1.13;93.27;100406.97;1776528;79;21199;-88
2020/12/03 08:11:59;;;;;;;58.23;21.42;;;;;;;-1.16;93.23;100403.39;1796507;79;20899;-89
2020/12/03 08:14:53;;;;;;;55.75;20.60;;;;;;;-1.16;93.19;100404.74;1796508;79;20942;-85
2020/12/03 08:17:27;;;;;;;56.45;17.70;;;;;;;-1.14;93.34;100410.70;1796613;79;21528;-76
2020/12/03 08:20:06;;;;;;;52.65;19.27;;;;;;;-1.07;93.48;100416.87;1728875;78;20974;-79
2020/12/03 08:22:43;;;;;;;59.63;20.90;;;;;;;-1.05;93.30;100407.53;1713856;83;21200;-82
2020/12/03 08:25:30;;;;;;;53.45;18.92;;;;;;;-1.05;93.20;100410.75;1695338;83;21084;-86
2020/12/03 08:28:03;;;;;;;47.08;16.30;;;;;;;-1.06;93.25;100403.19;1664829;84;21179;-87
2020/12/03 08:30:50;;;;;;;54.65;20.12;;;;;;;-1.03;93.20;100404.09;1648088;85;20969;-70
2020/12/03 08:33:24;;;;;;;50.75;18.87;;;;;;;-1.03;93.08;100397.88;1649309;86;21110;-85
2020/12/03 08:36:01;;;;;;;60.25;23.27;;;;;;;-1.01;93.19;100391.75;1650152;82;21234;-79
2020/12/03 08:41:17;;;;;;;52.38;19.52;;;;;;;-0.92;93.54;100381.52;1877592;76;22752;-85
2020/12/03 08:43:52;;;;;;;61.98;20.40;;;;;;;-0.95;93.36;100381.44;1845682;77;20913;-85
2020/12/03 08:46:21;;;;;;;49.65;20.08;;;;;;;-0.95;93.27;100378.73;1842328;78;21290;-86
2020/12/03 08:48:48;;;;;;;68.12;23.80;;;;;;;-0.94;93.43;100372.83;1841931;78;21561;-86
2020/12/03 08:51:17;;;;;;;60.45;21.73;;;;;;;-0.94;93.46;100366.09;1841807;78;20920;-86
2020/12/03 08:53:48;;;;;;;59.18;20.57;;;;;;;-0.95;93.35;100361.22;1841937;78;20916;-87
2020/12/03 08:56:28;;;;;;;52.70;19.07;;;;;;;-0.92;93.27;100376.13;1842001;78;21620;-87
2020/12/03 08:59:18;;;;;;;43.38;17.62;;;;;;;-0.94;93.06;100369.61;1842390;77;21364;-86
2020/12/03 09:01:58;;;;;;;49.73;19.85;;;;;;;-0.95;92.94;100372.00;1842055;78;20908;-84
2020/12/03 09:04:27;;;;;;;44.30;16.67;;;;;;;-0.95;93.01;100367.95;1839741;78;21047;-89
2020/12/03 09:06:55;;;;;;;51.37;19.85;;;;;;;-0.92;93.15;100369.39;1841862;78;21034;-90
2020/12/03 09:09:25;;;;;;;43.42;17.70;;;;;;;-0.91;93.14;100362.43;1841853;78;20916;-89
2020/12/03 09:11:53;;;;;;;47.90;18.02;;;;;;;-0.87;93.08;100348.81;1841784;78;21346;-87
2020/12/03 09:14:21;;;;;;;40.98;16.07;;;;;;;-0.86;92.95;100350.46;1831988;76;21832;-90
2020/12/03 09:16:55;;;;;;;44.63;17.07;;;;;;;-0.87;92.96;100346.64;1819431;78;20928;-90
2020/12/03 09:19:26;;;;;;;51.02;19.35;;;;;;;-0.86;93.06;100348.29;1842047;78;21462;-77
2020/12/03 09:21:54;;;;;;;45.88;19.02;;;;;;;-0.89;92.89;100360.86;1842232;78;20928;-85
2020/12/03 09:24:24;;;;;;;48.30;18.90;;;;;;;-0.90;92.89;100357.34;1812524;78;21251;-89
2020/12/03 09:27:01;;;;;;;53.08;19.80;;;;;;;-0.93;92.89;100352.39;1841772;78;20928;-84
2020/12/03 09:29:28;;;;;;;50.10;18.80;;;;;;;-0.92;92.97;100347.30;1814373;78;21110;-86
2020/12/03 09:32:03;;;;;;;44.03;16.50;;;;;;;-0.92;92.94;100356.73;1804422;79;21112;-81
2020/12/03 09:34:34;;;;;;;48.17;19.10;;;;;;;-0.91;92.86;100363.78;1806760;79;21467;-75
2020/12/03 09:37:03;;;;;;;56.13;21.40;;;;;;;-0.89;92.92;100370.30;1806993;79;21358;-78
2020/12/03 09:39:32;;;;;;;48.08;20.08;;;;;;;-0.88;92.89;100357.12;1778102;79;21095;-79
2020/12/03 09:42:02;;;;;;;48.52;20.75;;;;;;;-0.88;92.85;100343.13;1812465;78;21007;-79
2020/12/03 09:44:33;;;;;;;51.02;20.40;;;;;;;-0.91;92.60;100338.17;1812667;79;21019;-79
2020/12/03 09:47:08;;;;;;;48.95;21.17;;;;;;;-0.96;92.47;100338.01;1800744;79;21036;-78
2020/12/03 09:49:37;;;;;;;59.63;22.22;;;;;;;-1.00;92.58;100326.02;1762880;81;21410;-76
2020/12/03 09:52:10;;;;;;;48.58;21.73;;;;;;;-1.03;92.74;100335.89;1762325;81;21044;-77
2020/12/03 09:54:40;;;;;;;50.65;19.32;;;;;;;-1.01;93.01;100330.59;1762266;81;21048;-78
2020/12/03 09:57:12;;;;;;;60.03;22.82;;;;;;;-1.00;93.15;100330.89;1762303;81;20980;-78
2020/12/03 09:59:39;;;;;;;56.00;21.37;;;;;;;-1.00;93.38;100328.19;1796188;77;21118;-78
2020/12/03 10:02:17;;;;;;;60.33;21.45;;;;;;;-1.00;93.45;100333.58;1810812;79;21939;-79
2020/12/03 10:05:16;;;;;;;53.40;23.15;;;;;;;-1.02;93.50;100325.41;1810865;77;21553;-79
2020/12/03 10:08:36;;;;;;;57.98;21.87;;;;;;;-0.99;93.67;100326.32;1807397;77;21486;-78
2020/12/03 10:11:42;;;;;;;51.42;20.65;;;;;;;-0.97;93.68;100318.84;1789498;80;21491;-77
2020/12/03 10:14:54;;;;;;;62.58;21.73;;;;;;;-0.94;93.53;100319.75;1700730;84;21183;-78
2020/12/03 10:17:24;;;;;;;55.15;21.52;;;;;;;-0.92;93.39;100319.52;1752080;82;21245;-76
2020/12/03 10:19:52;;;;;;;46.70;19.10;;;;;;;-0.92;93.31;100317.66;1733743;82;20978;-76
2020/12/03 10:22:31;;;;;;;54.50;22.10;;;;;;;-0.87;93.33;100315.12;1709112;82;21577;-77
2020/12/03 10:25:17;;;;;;;45.55;19.90;;;;;;;-0.82;93.21;100319.84;1733818;82;21019;-76
2020/12/03 10:28:21;;;;;;;45.98;19.60;;;;;;;-0.76;93.32;100324.34;1733853;82;21065;-76
2020/12/03 10:30:48;;;;;;;60.30;21.97;;;;;;;-0.70;92.97;100320.76;1734033;82;22086;-76
2020/12/03 10:33:17;;;;;;;53.42;21.23;;;;;;;-0.70;92.62;100307.28;1709003;82;21066;-76
2020/12/03 10:35:47;;;;;;;56.53;21.90;;;;;;;-0.70;92.58;100310.80;1733824;82;20959;-76
2020/12/03 10:38:24;;;;;;;52.95;21.80;;;;;;;-0.71;92.51;100308.33;1733807;82;20979;-75
2020/12/03 10:40:55;;;;;;;59.65;22.90;;;;;;;-0.72;92.33;100303.45;1726882;82;20992;-75
2020/12/03 10:43:29;;;;;;;55.70;22.15;;;;;;;-0.74;92.07;100301.51;1733564;82;21196;-75
2020/12/03 10:45:59;;;;;;;57.03;22.67;;;;;;;-0.76;92.10;100302.25;1733504;82;20961;-75
2020/12/03 10:48:35;;;;;;;59.85;23.35;;;;;;;-0.73;92.34;100307.72;1733515;82;21595;-76
2020/12/03 10:51:08;;;;;;;55.35;20.97;;;;;;;-0.70;92.34;100300.02;1727588;83;21079;-76
2020/12/03 10:53:37;;;;;;;62.55;23.83;;;;;;;-0.70;92.29;100297.31;1733744;82;20939;-76
2020/12/03 10:56:07;;;;;;;58.80;22.60;;;;;;;-0.69;92.32;100299.48;1733555;82;21211;-76
2020/12/03 11:01:27;;;;;;;57.55;22.75;;;;;;;-0.66;92.16;100286.91;1733552;82;21133;-76
2020/12/03 11:03:55;;;;;;;58.48;23.40;;;;;;;-0.68;92.19;100284.44;1733506;82;21103;-76
2020/12/03 11:06:26;;;;;;;77.37;27.77;;;;;;;-0.67;92.45;100279.86;1705081;82;21509;-75
2020/12/03 11:08:56;;;;;;;58.68;23.95;;;;;;;-0.68;92.42;100280.91;1733580;82;21377;-76
2020/12/03 11:11:25;;;;;;;64.67;24.95;;;;;;;-0.69;92.26;100277.92;1733305;82;20979;-75
2020/12/03 11:13:52;;;;;;;64.45;24.90;;;;;;;-0.73;92.08;100276.72;1733607;82;20943;-76
2020/12/03 11:16:23;;;;;;;63.78;23.98;;;;;;;-0.75;92.22;100282.86;1704801;82;21039;-76
2020/12/03 11:18:54;;;;;;;95.95;29.42;;;;;;;-0.77;92.23;100285.78;1729241;82;21073;-76
2020/12/03 11:21:29;;;;;;;69.20;25.27;;;;;;;-0.78;92.24;100288.17;1733512;82;21429;-76
2020/12/03 11:24:12;;;;;;;67.42;24.43;;;;;;;-0.79;92.18;100287.05;1733484;82;21604;-77
2020/12/03 11:26:42;;;;;;;63.02;24.67;;;;;;;-0.80;92.19;100288.92;1733667;82;21553;-76
2020/12/03 11:29:14;;;;;;;69.55;26.12;;;;;;;-0.77;92.40;100289.00;1733484;82;21023;-76
2020/12/03 11:31:42;;;;;;;63.98;24.20;;;;;;;-0.75;92.31;100289.08;1733703;82;21032;-76
2020/12/03 11:34:10;;;;;;;61.30;24.52;;;;;;;-0.73;92.40;100289.67;1733611;82;22255;-76
2020/12/03 11:36:41;;;;;;;65.47;25.57;;;;;;;-0.70;92.72;100283.83;1733425;82;21027;-76
2020/12/03 11:39:09;;;;;;;59.90;25.05;;;;;;;-0.67;92.64;100283.39;1733580;81;21566;-74
2020/12/03 11:47:39;;;;;;;60.88;24.87;;;;;;;-0.73;92.24;100278.89;1841849;78;20999;-75
2020/12/03 11:49:48;;;;;;;69.32;27.75;;;;;;;-0.76;92.01;100273.94;1837513;78;21358;-75
2020/12/03 11:52:25;;;;;;;65.50;24.55;;;;;;;-0.80;92.06;100270.57;1841684;78;21020;-74
2020/12/03 11:54:53;;;;;;;62.73;25.48;;;;;;;-0.83;92.17;100274.53;1841679;78;20912;-72
2020/12/03 11:57:21;;;;;;;67.30;24.52;;;;;;;-0.84;92.11;100270.72;1841731;78;21604;-72
2020/12/03 11:59:50;;;;;;;71.97;27.73;;;;;;;-0.85;92.20;100273.94;1841686;78;20999;-72